METAR stanice u blizini

 

LYBE - Beograd / Surčin, Srbija
Ažurirano: 18/06/2019 10:30
Few Clouds
Few Clouds
 Pravac vetra SZ
Vetar: SZ 6 km/h
Temperatura: 25°C
Tačka rose: 20°C
Vlažnost: 74%
Pritisak: 1017 hPa
Oblaci: Few Clouds
Vidljivost: 10 km
Cloud details: Few Clouds 1219 m
2019/06/18 08:30 LYBE 180830Z 32003KT 280V360 9999 FEW040 25/20 Q1017 NOSIG
LYBT - Beograd / Batajnica, Srbija
Ažurirano: 18/06/2019 10:30
Few Clouds
Few Clouds
 Pravac vetra calm
Vetar: Tišina
Temperatura: 25°C
Tačka rose: 20°C
Vlažnost: 74%
Pritisak: 1017 hPa
Oblaci: Few Clouds
Vidljivost: 10 km
Cloud details: Few Clouds 701 m
2019/06/18 08:30 LYBT 180830Z 00000KT 9999 FEW023 25/20 Q1017 NOSIG
LYVR - Vršac, Srbija
Ažurirano: 18/06/2019 10:30
Vedro
Vedro
 Pravac vetra JI
Vetar: JI 13 km/h, Maks.: 31 km/h
Temperatura: 26°C
Tačka rose: 18°C
Vlažnost: 61%
Pritisak: 1017 hPa
Pregled: Vedro
Vidljivost: greater than 10 km
2019/06/18 08:30 LYVR 180830Z 14007G17KT CAVOK 26/18 Q1017 NOSIG
 
LYKV - Lađevci, Srbija
Ažurirano: 18/06/2019 10:30
Mostly Cloudy
Mostly Cloudy
 Pravac vetra Z
Vetar: Z 9 km/h
Temperatura: 23°C
Tačka rose: 20°C
Vlažnost: 83%
Pritisak: 1017 hPa
Oblaci: Mostly Cloudy
Vidljivost: 10 km
Cloud details: Few Clouds 610 m
Mostly Cloudy 823 m
2019/06/18 08:30 LYKV 180830Z 27005KT 220V310 9999 FEW020 BKN027 23/20 Q1017 NOSIG
LYNI - Niš, Srbija
Ažurirano: 18/06/2019 10:30
Few Clouds
Few Clouds
 Pravac vetra varies
Vetar: varies 4 km/h
Temperatura: 25°C
Tačka rose: 19°C
Vlažnost: 69%
Pritisak: 1016 hPa
Oblaci: Few Clouds
Vidljivost: 10 km
Cloud details: Few Clouds 701 m
2019/06/18 08:30 LYNI 180830Z VRB02KT 9999 FEW023 25/19 Q1016 NOSIG
BKPR - Priština, Srbija
Ažurirano: 18/06/2019 10:30
Partly Cloudy
Partly Cloudy
 Pravac vetra varies
Vetar: varies 6 km/h
Temperatura: 21°C
Tačka rose: 15°C
Vlažnost: 69%
Pritisak: 1018 hPa
Oblaci: Partly Cloudy
Vidljivost: 10 km
Cloud details: Partly Cloudy 1067 m
2019/06/18 08:30 BKPR 180830Z VRB03KT 9999 SCT035 21/15 Q1018 NOSIG
 
LHPP - Pecs / Pogany, Hungary
Ažurirano: 18/06/2019 10:15
Mostly Cloudy
Mostly Cloudy
 Pravac vetra JI
Vetar: JI 4 km/h
Temperatura: 23°C
Tačka rose: 19°C
Vlažnost: 78%
Pritisak: 1018 hPa
Oblaci: Mostly Cloudy
Vidljivost: 10 km
Cloud details: Mostly Cloudy 488 m
2019/06/18 08:15 LHPP 180815Z 13002KT 9999 BKN016 23/19 Q1018
LHUD - Szeged, Hungary
Ažurirano: 18/06/2019 01:45
NOT Current
Mostly Cloudy
Mostly Cloudy
 Pravac vetra SSI
Vetar: SSI 17 km/h
Temperatura: 20°C
Tačka rose: 17°C
Vlažnost: 83%
Pritisak: 1017 hPa
Oblaci: Mostly Cloudy
Vidljivost: 10 km
Cloud details: Few Clouds 1219 m
Mostly Cloudy 6096 m
2019/06/17 23:45 LHUD 172345Z 02009KT 9999 FEW040 BKN200 20/17 Q1017
LRTR - Timisoara, Romania
Ažurirano: 18/06/2019 10:30
Vedro
Vedro
 Pravac vetra IJI
Vetar: IJI 9 km/h
Temperatura: 23°C
Tačka rose: 20°C
Vlažnost: 83%
Pritisak: 1017 hPa
Pregled: Vedro
Vidljivost: greater than 10 km
2019/06/18 08:30 LRTR 180830Z 12005KT CAVOK 23/20 Q1017
 
LRCV - Craiova, Romania
Ažurirano: 18/06/2019 10:30
Few Clouds
Few Clouds
 Pravac vetra ISI
Vetar: ISI 11 km/h
Temperatura: 26°C
Tačka rose: 17°C
Vlažnost: 58%
Pritisak: 1017 hPa
Oblaci: Few Clouds
Vidljivost: 10 km
Cloud details: Few Clouds 853 m
2019/06/18 08:30 LRCV 180830Z 06006KT 010V160 9999 FEW028 26/17 Q1017 R27/CLRD//
LBSF - Sofia, Bulgaria
Ažurirano: 18/06/2019 10:30
Few Clouds
Few Clouds
 Pravac vetra JI
Vetar: JI 7 km/h
Temperatura: 25°C
Tačka rose: 15°C
Vlažnost: 54%
Pritisak: 1018 hPa
Oblaci: Few Clouds
Vidljivost: 10 km
Cloud details: Few Clouds 2042 m
2019/06/18 08:30 LBSF 180830Z 13004KT 070V220 9999 FEW067 25/15 Q1018 NOSIG
LWSK - Skoplje, Makedonija
Ažurirano: 18/06/2019 10:30
Few Clouds
Few Clouds
 Pravac vetra calm
Vetar: Tišina
Temperatura: 22°C
Tačka rose: 17°C
Vlažnost: 73%
Pritisak: 1017 hPa
Oblaci: Few Clouds
Vidljivost: 10 km
Cloud details: Few Clouds 305 m
2019/06/18 08:30 LWSK 180830Z 00000KT 9999 FEW010 22/17 Q1017 NOSIG
 
LYPG - Podgorica, Crna Gora
Ažurirano: 18/06/2019 10:30
Mostly Cloudy
Mostly Cloudy
 Pravac vetra varies
Vetar: varies 2 km/h
Temperatura: 27°C
Heat Index: 27°C
Tačka rose: 14°C
Vlažnost: 45%
Pritisak: 1014 hPa
Oblaci: Mostly Cloudy
Vidljivost: 10 km
Cloud details: Few Clouds 1219 m
Mostly Cloudy 3048 m
2019/06/18 08:30 LYPG 180830Z VRB01KT 9999 FEW040 BKN100 27/14 Q1014 NOSIG
LQSA - Sarajevo, Bosna i Hercegovina
Ažurirano: 18/06/2019 10:30
Partly Cloudy
Partly Cloudy
 Pravac vetra varies
Vetar: varies 4 km/h
Temperatura: 23°C
Tačka rose: 16°C
Vlažnost: 65%
Pritisak: 1018 hPa
Oblaci: Partly Cloudy
Vidljivost: 10 km
Cloud details: Partly Cloudy 1067 m
2019/06/18 08:30 LQSA 180830Z VRB02KT 9999 SCT035 23/16 Q1018 NOSIG
LDOS - Osijek, Hrvatksa
Ažurirano: 18/06/2019 10:30
Mostly Cloudy
Mostly Cloudy
 Pravac vetra varies
Vetar: varies 4 km/h
Temperatura: 23°C
Tačka rose: 20°C
Vlažnost: 83%
Pritisak: 1017 hPa
Oblaci: Mostly Cloudy
Vidljivost: 10 km
Cloud details: Mostly Cloudy 1006 m
2019/06/18 08:30 LDOS 180830Z VRB02KT 9999 BKN033 23/20 Q1017